Time;durP1;ratioP1;P1;durP2;ratioP2;P2;SDS_P1;SDS_P2;PMS_P1;PMS_P2;Temp;Humidity;BMP_temperature;BMP_pressure;BME280_temperature;BME280_humidity;BME280_pressure;Samples;Min_cycle;Max_cycle;Signal;HPM_P1;HPM_P2
2022/10/09 00:00:47;;;;;;;27.2;31.8;;;;;;;14.6;84;99370;;;;
2022/10/09 00:11:46;;;;;;;23.2;30;;;;;;;14.5;82.7;99360;;;;
2022/10/09 00:22:46;;;;;;;23.2;30;;;;;;;14.3;81;99380;;;;
2022/10/09 00:32:46;;;;;;;23.2;30;;;;;;;14.1;79.7;99380;;;;
2022/10/09 00:42:47;;;;;;;13.5;18.5;;;;;;;14.1;80.6;99400;;;;
2022/10/09 00:53:46;;;;;;;13.5;18.5;;;;;;;13.9;79.2;99400;;;;
2022/10/09 01:03:46;;;;;;;13.5;18.5;;;;;;;13.7;76.6;99410;;;;
2022/10/09 01:14:46;;;;;;;8.2;17.6;;;;;;;13.5;75.2;99410;;;;
2022/10/09 01:25:46;;;;;;;8.2;17.6;;;;;;;13.2;74.5;99420;;;;
2022/10/09 01:36:46;;;;;;;8.2;17.6;;;;;;;13;75.3;99430;;;;
2022/10/09 01:46:46;;;;;;;3.4;5.9;;;;;;;12.9;75.7;99440;;;;
2022/10/09 01:57:46;;;;;;;3.4;5.9;;;;;;;12.9;76.2;99450;;;;
2022/10/09 02:07:46;;;;;;;3.1;6.2;;;;;;;12.8;77.7;99470;;;;
2022/10/09 02:18:46;;;;;;;3.1;6.2;;;;;;;12.7;79;99480;;;;
2022/10/09 02:29:46;;;;;;;3.1;6.2;;;;;;;12.5;79.2;99490;;;;
2022/10/09 02:40:47;;;;;;;3.9;8.7;;;;;;;12.3;79.6;99500;;;;
2022/10/09 02:51:46;;;;;;;3.9;8.7;;;;;;;12.2;80.2;99510;;;;
2022/10/09 03:01:47;;;;;;;3.9;8.7;;;;;;;12.1;80.7;99530;;;;
2022/10/09 03:11:46;;;;;;;4;9.3;;;;;;;12;81.1;99540;;;;
2022/10/09 03:22:47;;;;;;;4;9.3;;;;;;;11.9;81.4;99550;;;;
2022/10/09 03:33:47;;;;;;;4;9.3;;;;;;;11.7;81.3;99560;;;;
2022/10/09 03:43:47;;;;;;;4.1;8.3;;;;;;;11.4;81.9;99570;;;;
2022/10/09 03:53:46;;;;;;;4.1;8.3;;;;;;;11.1;82.4;99570;;;;
2022/10/09 04:04:46;;;;;;;4.1;8.3;;;;;;;10.9;82.6;99590;;;;
2022/10/09 04:15:47;;;;;;;3.6;7;;;;;;;10.5;82.9;99590;;;;
2022/10/09 04:26:47;;;;;;;3.6;7;;;;;;;10.3;83.2;99600;;;;
2022/10/09 04:37:46;;;;;;;3.6;6.6;;;;;;;10.1;83.6;99610;;;;
2022/10/09 04:47:46;;;;;;;3.6;6.6;;;;;;;10.2;83.9;99630;;;;
2022/10/09 04:58:47;;;;;;;3.6;6.6;;;;;;;10.1;84.5;99650;;;;
2022/10/09 05:09:46;;;;;;;4.7;7.6;;;;;;;9.9;85.2;99660;;;;
2022/10/09 05:19:46;;;;;;;4.7;7.6;;;;;;;9.8;85.6;99650;;;;
2022/10/09 05:30:46;;;;;;;4.7;7.6;;;;;;;9.6;86.4;99670;;;;
2022/10/09 05:40:47;;;;;;;5.1;8.6;;;;;;;9.6;86.6;99690;;;;
2022/10/09 05:51:48;;;;;;;5.1;8.6;;;;;;;9.8;86.8;99720;;;;
2022/10/09 06:01:47;;;;;;;5.1;8.6;;;;;;;10;86.8;99730;;;;
2022/10/09 06:11:47;;;;;;;5.5;8.9;;;;;;;10.4;86.4;99740;;;;
2022/10/09 06:22:46;;;;;;;5.5;8.9;;;;;;;11;84.3;99750;;;;
2022/10/09 06:32:46;;;;;;;5.5;8.9;;;;;;;11.5;82.6;99760;;;;
2022/10/09 06:43:47;;;;;;;5;9.5;;;;;;;11.8;78.2;99780;;;;
2022/10/09 06:54:46;;;;;;;5;9.5;;;;;;;12;78.5;99790;;;;
2022/10/09 07:05:46;;;;;;;5;9.5;;;;;;;12.2;78.3;99800;;;;
2022/10/09 07:16:47;;;;;;;5.5;11.2;;;;;;;12.2;76.8;99800;;;;
2022/10/09 07:26:47;;;;;;;5.5;11.2;;;;;;;12.4;76.3;99810;;;;
2022/10/09 07:37:46;;;;;;;4.3;9.6;;;;;;;12.4;75.4;99820;;;;
2022/10/09 07:47:47;;;;;;;4.3;9.6;;;;;;;12.4;74.8;99830;;;;
2022/10/09 07:57:46;;;;;;;4.3;9.6;;;;;;;12.3;74.2;99830;;;;
2022/10/09 08:08:47;;;;;;;3.6;8.6;;;;;;;12.4;74.1;99830;;;;
2022/10/09 08:18:47;;;;;;;3.6;8.6;;;;;;;12.7;73.7;99850;;;;
2022/10/09 08:29:47;;;;;;;3.6;8.6;;;;;;;13.2;72.6;99850;;;;
2022/10/09 08:40:47;;;;;;;3.3;5.8;;;;;;;12.9;71.2;99850;;;;
2022/10/09 08:51:47;;;;;;;3.3;5.8;;;;;;;13;71.2;99860;;;;
2022/10/09 09:02:47;;;;;;;3.3;5.8;;;;;;;13.6;71.5;99860;;;;
2022/10/09 09:13:47;;;;;;;3.8;8.2;;;;;;;13.8;68.6;99850;;;;
2022/10/09 09:23:47;;;;;;;3.8;8.2;;;;;;;14.4;66.3;99850;;;;
2022/10/09 09:34:47;;;;;;;3.8;8.2;;;;;;;14.2;67.3;99850;;;;
2022/10/09 09:45:47;;;;;;;3.7;7.1;;;;;;;14.5;63;99850;;;;
2022/10/09 09:55:47;;;;;;;3.7;7.1;;;;;;;15.2;60.7;99850;;;;
2022/10/09 10:05:47;;;;;;;3.7;7.1;;;;;;;15.1;61.9;99850;;;;
2022/10/09 10:16:47;;;;;;;2.7;5.9;;;;;;;14.8;63;99840;;;;
2022/10/09 10:26:47;;;;;;;2.7;5.9;;;;;;;14.6;63.3;99840;;;;
2022/10/09 10:37:47;;;;;;;3.2;8.4;;;;;;;15.5;59.8;99830;;;;
2022/10/09 10:47:47;;;;;;;3.2;8.4;;;;;;;14.9;56.5;99830;;;;
2022/10/09 10:58:47;;;;;;;3.2;8.4;;;;;;;15.2;58.7;99830;;;;
2022/10/09 11:09:47;;;;;;;3;5.8;;;;;;;15.9;57.6;99830;;;;
2022/10/09 11:20:47;;;;;;;3;5.8;;;;;;;15.6;56.3;99830;;;;
2022/10/09 11:30:47;;;;;;;3;5.8;;;;;;;15.4;56.9;99820;;;;
2022/10/09 11:40:47;;;;;;;3.3;7.1;;;;;;;15.2;56.5;99800;;;;
2022/10/09 11:50:47;;;;;;;3.3;7.1;;;;;;;14.9;57;99810;;;;
2022/10/09 12:00:49;;;;;;;3.3;7.1;;;;;;;14.6;57.5;99800;;;;
2022/10/09 12:11:47;;;;;;;3.5;5.9;;;;;;;14.9;58.7;99790;;;;
2022/10/09 12:21:47;;;;;;;3.5;5.9;;;;;;;15.6;56.6;99770;;;;
2022/10/09 12:32:47;;;;;;;3.5;5.9;;;;;;;15.6;51.7;99770;;;;
2022/10/09 12:42:47;;;;;;;3.2;5.7;;;;;;;15.4;52.8;99770;;;;
2022/10/09 12:53:47;;;;;;;3.2;5.7;;;;;;;16;54.4;99770;;;;
2022/10/09 13:03:47;;;;;;;3.2;5.7;;;;;;;16;52.7;99770;;;;
2022/10/09 13:14:48;;;;;;;2.9;5;;;;;;;16.3;52.9;99770;;;;
2022/10/09 13:25:47;;;;;;;2.9;5;;;;;;;15.8;53;99770;;;;
2022/10/09 13:36:47;;;;;;;3.1;7.3;;;;;;;15.2;54.6;99770;;;;
2022/10/09 13:47:47;;;;;;;3.1;7.3;;;;;;;15.3;55.7;99760;;;;
2022/10/09 13:57:47;;;;;;;3.1;7.3;;;;;;;15.7;54.7;99750;;;;
2022/10/09 14:08:47;;;;;;;3;6.6;;;;;;;16;52.7;99750;;;;
2022/10/09 14:18:47;;;;;;;3;6.6;;;;;;;16;51;99740;;;;
2022/10/09 14:28:47;;;;;;;3;6.6;;;;;;;16.1;51.1;99740;;;;
2022/10/09 14:39:47;;;;;;;2.3;4.3;;;;;;;16.2;51;99730;;;;
2022/10/09 14:50:47;;;;;;;2.3;4.3;;;;;;;16.1;50.8;99740;;;;
2022/10/09 15:00:47;;;;;;;2.3;4.3;;;;;;;15.5;52.5;99730;;;;
2022/10/09 15:11:47;;;;;;;2.2;4.8;;;;;;;14.7;54.7;99720;;;;
2022/10/09 15:22:47;;;;;;;2.2;4.8;;;;;;;14.2;56.4;99720;;;;
2022/10/09 15:33:47;;;;;;;2.2;4.8;;;;;;;13.5;60.9;99730;;;;
2022/10/09 15:44:47;;;;;;;2.6;5.4;;;;;;;12.8;61.4;99730;;;;
2022/10/09 15:54:47;;;;;;;2.6;5.4;;;;;;;12.1;64.6;99740;;;;
2022/10/09 16:04:47;;;;;;;2.6;5.4;;;;;;;11.6;66.5;99740;;;;
2022/10/09 16:14:47;;;;;;;4.8;11;;;;;;;11.2;67.9;99740;;;;
2022/10/09 16:25:47;;;;;;;4.8;11;;;;;;;10.6;70;99750;;;;
2022/10/09 16:35:47;;;;;;;4.8;11;;;;;;;10.2;71;99760;;;;
2022/10/09 16:45:47;;;;;;;18.4;27.6;;;;;;;9.8;73.8;99770;;;;
2022/10/09 16:55:47;;;;;;;18.4;27.6;;;;;;;9.4;73.8;99770;;;;
2022/10/09 17:06:47;;;;;;;6.9;10.8;;;;;;;9.2;75.1;99780;;;;
2022/10/09 17:17:47;;;;;;;6.9;10.8;;;;;;;9;75.2;99780;;;;
2022/10/09 17:27:47;;;;;;;6.9;10.8;;;;;;;8.9;76.4;99790;;;;
2022/10/09 17:37:47;;;;;;;7;12.3;;;;;;;8.9;76.3;99790;;;;
2022/10/09 17:48:51;;;;;;;7;12.3;;;;;;;8.7;75.9;99790;;;;
2022/10/09 17:59:47;;;;;;;7;12.3;;;;;;;8.6;76.3;99800;;;;
2022/10/09 18:09:47;;;;;;;6.5;9.9;;;;;;;8.5;76.5;99810;;;;
2022/10/09 18:19:47;;;;;;;6.5;9.9;;;;;;;8.3;77.1;99810;;;;
2022/10/09 18:30:47;;;;;;;6.5;9.9;;;;;;;8.2;77.6;99820;;;;
2022/10/09 18:40:47;;;;;;;15.2;23.3;;;;;;;8;77.5;99830;;;;
2022/10/09 18:51:47;;;;;;;15.2;23.3;;;;;;;7.8;77.4;99830;;;;
2022/10/09 19:02:47;;;;;;;15.2;23.3;;;;;;;7.4;77.5;99840;;;;
2022/10/09 19:12:47;;;;;;;21.3;36.5;;;;;;;7.1;77.9;99840;;;;
2022/10/09 19:22:47;;;;;;;21.3;36.5;;;;;;;6.8;78.2;99840;;;;
2022/10/09 19:32:47;;;;;;;21.3;36.5;;;;;;;6.5;80.1;99850;;;;
2022/10/09 19:43:47;;;;;;;15.8;26.4;;;;;;;6.3;79.9;99850;;;;
2022/10/09 19:53:47;;;;;;;15.8;26.4;;;;;;;6.1;80.3;99850;;;;
2022/10/09 20:04:47;;;;;;;15.8;26.4;;;;;;;5.9;81;99850;;;;
2022/10/09 20:14:47;;;;;;;7.5;14.7;;;;;;;5.7;81.3;99850;;;;
2022/10/09 20:25:47;;;;;;;7.5;14.7;;;;;;;5.6;81.6;99860;;;;
2022/10/09 20:35:47;;;;;;;3.7;6.8;;;;;;;5.6;82.3;99850;;;;
2022/10/09 20:46:47;;;;;;;3.7;6.8;;;;;;;5.6;83.4;99850;;;;
2022/10/09 20:57:47;;;;;;;3.7;6.8;;;;;;;5.7;83.6;99850;;;;
2022/10/09 21:08:47;;;;;;;4;8.7;;;;;;;5.6;83.5;99840;;;;
2022/10/09 21:18:47;;;;;;;4;8.7;;;;;;;5.8;84.7;99850;;;;
2022/10/09 21:29:47;;;;;;;4;8.7;;;;;;;6;85.5;99850;;;;
2022/10/09 21:40:48;;;;;;;3.1;5.9;;;;;;;6.1;85.3;99840;;;;
2022/10/09 21:51:47;;;;;;;3.1;5.9;;;;;;;6;85;99840;;;;
2022/10/09 22:02:47;;;;;;;3.1;5.9;;;;;;;5.9;84.2;99840;;;;
2022/10/09 22:13:47;;;;;;;4.1;9.4;;;;;;;5.6;83.1;99830;;;;
2022/10/09 22:23:47;;;;;;;4.1;9.4;;;;;;;5.2;84;99830;;;;
2022/10/09 22:34:47;;;;;;;4.1;9.4;;;;;;;5.2;85.2;99840;;;;
2022/10/09 22:45:47;;;;;;;5.8;9.5;;;;;;;5.3;85.8;99830;;;;
2022/10/09 22:55:47;;;;;;;5.8;9.5;;;;;;;5.2;86;99830;;;;
2022/10/09 23:06:47;;;;;;;5.2;10.2;;;;;;;5.1;85.9;99830;;;;
2022/10/09 23:16:47;;;;;;;5.2;10.2;;;;;;;4.9;85.7;99830;;;;
2022/10/09 23:26:47;;;;;;;5.2;10.2;;;;;;;4.8;85.5;99830;;;;
2022/10/09 23:37:47;;;;;;;4;7.2;;;;;;;4.7;85.3;99830;;;;
2022/10/09 23:47:47;;;;;;;4;7.2;;;;;;;4.4;85.6;99830;;;;
2022/10/09 23:57:47;;;;;;;4;7.2;;;;;;;4.3;86.2;99830;;;;
